createdAt,value
2023-02-04T00:00:47.359Z,4.40
2023-02-04T00:04:55.935Z,6.33
2023-02-04T00:09:04.579Z,5.00
2023-02-04T00:13:13.154Z,3.90
2023-02-04T00:17:24.333Z,3.17
2023-02-04T00:21:33.008Z,4.40
2023-02-04T00:25:41.590Z,3.97
2023-02-04T00:29:50.224Z,4.27
2023-02-04T00:33:59.575Z,4.20
2023-02-04T00:38:08.424Z,5.20
2023-02-04T00:42:17.149Z,4.53
2023-02-04T00:46:25.799Z,4.50
2023-02-04T00:50:36.009Z,4.20
2023-02-04T00:54:44.657Z,4.47
2023-02-04T00:58:53.227Z,4.47
2023-02-04T01:03:01.963Z,4.57
2023-02-04T01:07:10.590Z,3.70
2023-02-04T01:11:19.865Z,6.07
2023-02-04T01:15:28.719Z,4.47
2023-02-04T01:19:37.289Z,3.57
2023-02-04T01:23:45.861Z,5.10
2023-02-04T01:27:54.500Z,5.20
2023-02-04T01:32:03.024Z,4.77
2023-02-04T01:36:12.026Z,4.07
2023-02-04T01:40:20.748Z,4.20
2023-02-04T01:44:29.964Z,3.80
2023-02-04T01:48:38.781Z,3.80
2023-02-04T01:52:47.873Z,2.97
2023-02-04T01:56:56.461Z,4.43
2023-02-04T02:01:08.109Z,4.60
2023-02-04T02:05:21.127Z,4.40
2023-02-04T02:09:31.527Z,4.83
2023-02-04T02:13:40.360Z,4.00
2023-02-04T02:17:48.994Z,5.13
2023-02-04T02:22:09.534Z,3.90
2023-02-04T02:26:20.146Z,5.50
2023-02-04T02:30:30.363Z,3.37
2023-02-04T02:34:58.589Z,4.73
2023-02-04T02:39:07.399Z,3.87
2023-02-04T02:43:19.199Z,4.40
2023-02-04T02:47:28.394Z,6.10
2023-02-04T02:51:36.944Z,4.13
2023-02-04T02:55:45.996Z,4.00
2023-02-04T02:59:56.066Z,5.53
2023-02-04T03:04:04.762Z,4.10
2023-02-04T03:08:14.759Z,4.20
2023-02-04T03:12:23.450Z,4.00
2023-02-04T03:16:36.737Z,3.90
2023-02-04T03:20:45.542Z,3.90
2023-02-04T03:24:54.516Z,3.80
2023-02-04T03:29:03.522Z,3.87
2023-02-04T03:33:12.072Z,3.57
2023-02-04T03:37:20.642Z,3.07
2023-02-04T03:41:29.747Z,4.00
2023-02-04T03:45:45.313Z,3.67
2023-02-04T03:49:48.593Z,4.07
2023-02-04T03:53:57.178Z,3.30
2023-02-04T03:58:06.354Z,4.33
2023-02-04T04:02:15.003Z,3.55
2023-02-04T04:06:23.575Z,4.50
2023-02-04T04:10:32.577Z,4.17
2023-02-04T04:14:44.170Z,4.10
2023-02-04T04:18:54.456Z,3.20
2023-02-04T04:23:03.073Z,4.00
2023-02-04T04:27:11.781Z,3.70
2023-02-04T04:31:20.519Z,3.30
2023-02-04T04:35:29.207Z,4.20
2023-02-04T04:39:38.629Z,4.90
2023-02-04T04:43:50.298Z,4.67
2023-02-04T04:47:58.916Z,4.13
2023-02-04T04:52:07.491Z,3.70
2023-02-04T04:56:16.049Z,4.60
2023-02-04T05:00:24.750Z,3.20
2023-02-04T05:04:33.416Z,3.70
2023-02-04T05:08:43.591Z,3.60
2023-02-04T05:12:52.149Z,3.47
2023-02-04T05:17:00.733Z,3.73
2023-02-04T05:21:09.769Z,4.00
2023-02-04T05:25:18.504Z,3.33
2023-02-04T05:29:27.050Z,4.55
2023-02-04T05:33:37.756Z,4.27
2023-02-04T05:37:46.411Z,4.40
2023-02-04T05:41:54.961Z,3.60
2023-02-04T05:46:05.630Z,4.17
2023-02-04T05:50:14.434Z,3.70
2023-02-04T05:54:22.992Z,3.53
2023-02-04T05:58:34.364Z,3.70
2023-02-04T06:02:42.915Z,5.00
2023-02-04T06:06:51.489Z,4.27
2023-02-04T06:11:00.058Z,5.93
2023-02-04T06:15:09.842Z,4.27
2023-02-04T06:19:18.542Z,4.20
2023-02-04T06:23:27.139Z,4.20
2023-02-04T06:27:35.697Z,3.73
2023-02-04T06:31:44.673Z,3.03
2023-02-04T06:35:53.363Z,3.67
2023-02-04T06:40:01.940Z,6.73
2023-02-04T06:44:10.562Z,4.10
2023-02-04T06:48:19.715Z,4.40
2023-02-04T06:52:28.357Z,3.50
2023-02-04T06:56:37.673Z,4.13
2023-02-04T07:00:46.294Z,5.10
2023-02-04T07:04:54.856Z,4.40
2023-02-04T07:09:03.591Z,4.93
2023-02-04T07:13:12.166Z,6.60
2023-02-04T07:17:20.728Z,3.97
2023-02-04T07:21:29.310Z,5.30
2023-02-04T07:25:41.034Z,4.20
2023-02-04T07:29:49.610Z,5.30
2023-02-04T07:33:58.175Z,4.50
2023-02-04T07:38:07.018Z,4.67
2023-02-04T07:42:15.576Z,4.80
2023-02-04T07:46:24.314Z,5.00
2023-02-04T07:50:33.018Z,4.80
2023-02-04T07:54:43.300Z,6.10
2023-02-04T07:58:51.997Z,5.13
2023-02-04T08:03:00.600Z,4.73
2023-02-04T08:07:09.210Z,4.57
2023-02-04T08:11:17.777Z,6.40
2023-02-04T08:15:26.323Z,4.87
2023-02-04T08:19:36.421Z,4.73
2023-02-04T08:23:44.978Z,5.13
2023-02-04T08:27:53.582Z,5.83
2023-02-04T08:32:02.462Z,5.40
2023-02-04T08:36:11.162Z,4.83
2023-02-04T08:40:20.591Z,5.90
2023-02-04T08:44:29.176Z,4.87
2023-02-04T08:48:37.833Z,5.03
2023-02-04T08:52:46.401Z,4.60
2023-02-04T08:56:55.014Z,5.60
2023-02-04T09:01:03.763Z,5.20
2023-02-04T09:05:12.303Z,5.07
2023-02-04T09:09:24.377Z,4.67
2023-02-04T09:13:33.682Z,4.17
2023-02-04T09:17:43.814Z,5.90
2023-02-04T09:21:55.110Z,4.87
2023-02-04T09:26:04.700Z,4.50
2023-02-04T09:30:13.920Z,5.77
2023-02-04T09:34:22.504Z,6.50
2023-02-04T09:38:31.056Z,5.73
2023-02-04T09:42:40.094Z,4.80
2023-02-04T09:46:57.594Z,5.80
2023-02-04T09:51:08.581Z,4.20
2023-02-04T09:55:20.074Z,4.55
2023-02-04T09:59:29.494Z,4.87
2023-02-04T10:03:41.398Z,5.30
2023-02-04T10:07:50.007Z,6.17
2023-02-04T10:11:58.573Z,5.03
2023-02-04T10:16:15.675Z,5.20
2023-02-04T10:20:25.345Z,4.93
2023-02-04T10:24:34.542Z,5.53
2023-02-04T10:28:43.562Z,5.67
2023-02-04T10:32:52.767Z,6.77
2023-02-04T10:37:03.678Z,7.10
2023-02-04T10:41:15.355Z,6.10
2023-02-04T10:45:26.708Z,6.83
2023-02-04T10:49:37.065Z,6.53
2023-02-04T10:54:03.290Z,7.27
2023-02-04T10:58:17.886Z,7.10
2023-02-04T11:02:47.516Z,6.73
2023-02-04T11:06:56.194Z,6.30
2023-02-04T11:11:23.274Z,5.90
2023-02-04T11:15:50.792Z,8.23
2023-02-04T11:20:00.669Z,6.90
2023-02-04T11:24:18.329Z,6.40
2023-02-04T11:28:27.577Z,6.30
2023-02-04T11:32:39.412Z,5.03
2023-02-04T11:37:05.722Z,4.90
2023-02-04T11:41:26.011Z,4.75
2023-02-04T11:45:36.806Z,4.47
2023-02-04T11:49:48.157Z,4.50
2023-02-04T11:53:56.724Z,5.57
2023-02-04T11:58:06.896Z,4.37
2023-02-04T12:02:20.851Z,4.87
2023-02-04T12:06:35.032Z,4.40
2023-02-04T12:10:46.666Z,5.30
2023-02-04T12:15:06.613Z,5.33
2023-02-04T12:24:22.871Z,5.10
2023-02-04T12:28:31.417Z,4.23
2023-02-04T12:32:39.978Z,5.27
2023-02-04T12:36:48.608Z,5.33
2023-02-04T12:40:57.164Z,5.63
2023-02-04T12:45:05.902Z,4.67
2023-02-04T12:49:14.518Z,4.40
2023-02-04T12:53:23.261Z,4.93
2023-02-04T12:57:32.956Z,3.50
2023-02-04T13:01:41.508Z,4.60
2023-02-04T13:05:50.070Z,4.60
2023-02-04T13:10:01.087Z,4.97
2023-02-04T13:14:09.709Z,3.80
2023-02-04T13:18:18.603Z,3.57
2023-02-04T13:22:27.507Z,4.57
2023-02-04T13:26:36.121Z,4.10
2023-02-04T13:30:44.723Z,5.23
2023-02-04T13:34:53.251Z,5.00
2023-02-04T13:39:01.880Z,4.83
2023-02-04T13:43:10.589Z,4.00
2023-02-04T13:47:19.166Z,4.10
2023-02-04T13:51:27.793Z,4.67
2023-02-04T13:55:36.441Z,4.37
2023-02-04T13:59:45.040Z,4.10
2023-02-04T14:03:53.641Z,4.63
2023-02-04T14:08:02.298Z,4.73
2023-02-04T14:12:10.866Z,4.13
2023-02-04T14:16:19.538Z,3.30
2023-02-04T14:20:28.548Z,4.30
2023-02-04T14:24:38.664Z,3.83
2023-02-04T14:28:47.244Z,3.80
2023-02-04T14:37:13.773Z,4.73
2023-02-04T14:41:24.297Z,4.10
2023-02-04T14:45:32.514Z,4.07
2023-02-04T14:49:41.056Z,4.40
2023-02-04T14:53:49.789Z,5.57
2023-02-04T14:57:58.341Z,5.73
2023-02-04T15:02:07.634Z,4.00
2023-02-04T15:06:16.343Z,5.08
2023-02-04T15:10:24.990Z,4.83
2023-02-04T15:14:33.720Z,4.27
2023-02-04T15:18:42.291Z,3.60
2023-02-04T15:22:52.473Z,3.90
2023-02-04T15:27:01.051Z,4.40
2023-02-04T15:31:09.896Z,4.53
2023-02-04T15:35:18.529Z,4.93
2023-02-04T15:39:27.586Z,5.10
2023-02-04T15:43:36.220Z,4.95
2023-02-04T15:47:44.869Z,3.70
2023-02-04T15:51:53.439Z,4.47
2023-02-04T15:56:02.251Z,3.47
2023-02-04T16:00:11.492Z,5.20
2023-02-04T16:04:20.984Z,5.13
2023-02-04T16:08:29.504Z,4.07
2023-02-04T16:12:38.051Z,5.00
2023-02-04T16:16:46.610Z,4.87
2023-02-04T16:20:55.154Z,3.90
2023-02-04T16:25:04.149Z,4.93
2023-02-04T16:29:12.772Z,5.70
2023-02-04T16:33:21.318Z,4.17
2023-02-04T16:37:29.886Z,6.43
2023-02-04T16:41:40.752Z,5.70
2023-02-04T16:45:49.406Z,4.60
2023-02-04T16:49:59.609Z,5.20
2023-02-04T16:54:09.855Z,5.60
2023-02-04T16:58:19.416Z,5.20
2023-02-04T17:02:28.024Z,5.80
2023-02-04T17:06:36.518Z,6.00
2023-02-04T17:11:03.089Z,7.60
2023-02-04T17:15:13.368Z,6.50
2023-02-04T17:19:22.006Z,6.60
2023-02-04T17:23:30.581Z,7.37
2023-02-04T17:27:39.130Z,5.63
2023-02-04T17:31:47.743Z,4.73
2023-02-04T17:35:56.369Z,4.10
2023-02-04T17:40:05.630Z,5.30
2023-02-04T17:44:15.781Z,5.80
2023-02-04T17:48:24.423Z,5.60
2023-02-04T17:52:35.534Z,5.67
2023-02-04T17:56:44.072Z,5.83
2023-02-04T18:00:55.245Z,5.60
2023-02-04T18:05:16.846Z,5.10
2023-02-04T18:09:31.700Z,5.00
2023-02-04T18:13:40.287Z,5.83
2023-02-04T18:17:50.190Z,5.40
2023-02-04T18:22:00.131Z,5.77
2023-02-04T18:26:17.822Z,4.70
2023-02-04T18:30:27.821Z,5.23
2023-02-04T18:34:40.225Z,5.30
2023-02-04T18:38:49.800Z,6.42
2023-02-04T18:43:19.467Z,6.03
2023-02-04T18:47:35.843Z,5.43
2023-02-04T18:51:45.961Z,5.80
2023-02-04T18:55:58.769Z,5.83
2023-02-04T19:00:13.896Z,8.63
2023-02-04T19:04:25.753Z,12.23
2023-02-04T19:08:46.325Z,10.20
2023-02-04T19:12:55.044Z,7.67
2023-02-04T19:17:25.055Z,7.70
2023-02-04T19:21:35.528Z,10.03
2023-02-04T19:25:47.044Z,11.17
2023-02-04T19:29:57.307Z,10.67
2023-02-04T19:34:23.947Z,9.33
2023-02-04T19:38:41.795Z,10.80
2023-02-04T19:42:50.605Z,9.63
2023-02-04T19:47:00.882Z,9.63
2023-02-04T19:51:22.899Z,9.77
2023-02-04T19:55:34.659Z,9.20
2023-02-04T19:59:43.396Z,8.40
2023-02-04T20:03:52.233Z,8.73
2023-02-04T20:08:32.306Z,9.37
2023-02-04T20:12:41.257Z,8.53
2023-02-04T20:17:03.294Z,9.47
2023-02-04T20:21:15.262Z,8.87
2023-02-04T20:25:35.808Z,9.97
2023-02-04T20:29:44.511Z,10.07
2023-02-04T20:33:55.877Z,8.47
2023-02-04T20:38:10.191Z,7.90
2023-02-04T20:42:36.646Z,8.63
2023-02-04T20:46:45.344Z,9.70
2023-02-04T20:50:58.566Z,9.57
2023-02-04T20:55:22.154Z,9.97
2023-02-04T20:59:36.643Z,7.60
2023-02-04T21:03:45.780Z,7.73
2023-02-04T21:07:58.575Z,7.70
2023-02-04T21:12:07.581Z,9.57
2023-02-04T21:16:16.204Z,9.70
2023-02-04T21:20:25.386Z,8.70
2023-02-04T21:24:33.944Z,6.90
2023-02-04T21:28:42.522Z,8.00
2023-02-04T21:32:51.506Z,8.10
2023-02-04T21:37:00.163Z,8.23
2023-02-04T21:41:08.728Z,9.33
2023-02-04T21:45:18.643Z,8.97
2023-02-04T21:49:27.196Z,7.00
2023-02-04T21:53:35.768Z,8.30
2023-02-04T21:57:44.411Z,7.57
2023-02-04T22:01:53.052Z,8.00
2023-02-04T22:06:01.631Z,7.50
2023-02-04T22:10:13.649Z,8.53
2023-02-04T22:14:40.110Z,11.17
2023-02-04T22:18:51.956Z,9.47
2023-02-04T22:23:00.515Z,9.97
2023-02-04T22:27:09.083Z,10.53
2023-02-04T22:31:17.764Z,12.80
2023-02-04T22:35:27.785Z,12.33
2023-02-04T22:39:36.367Z,9.83
2023-02-04T22:43:44.944Z,10.17
2023-02-04T22:47:53.506Z,9.07
2023-02-04T22:52:02.636Z,11.20
2023-02-04T22:56:11.196Z,10.57
2023-02-04T23:00:19.994Z,10.20
2023-02-04T23:04:28.696Z,11.80
2023-02-04T23:08:37.326Z,12.50
2023-02-04T23:12:45.899Z,10.43
2023-02-04T23:16:54.505Z,10.10
2023-02-04T23:21:04.766Z,10.50
2023-02-04T23:25:13.322Z,9.83
2023-02-04T23:29:21.885Z,10.23
2023-02-04T23:33:30.467Z,10.10
2023-02-04T23:37:39.106Z,10.80
2023-02-04T23:41:49.869Z,10.33
2023-02-04T23:45:59.945Z,12.00
2023-02-04T23:50:09.039Z,10.80
2023-02-04T23:54:17.648Z,11.93
2023-02-04T23:58:26.212Z,11.80
